Portada
METAR-TAF:

METAR-TAF

Aeroports :

Almagro, Espanya

latitud: 38-57-11N, longitud: 3-44-29W, altitud: 629 m

Observació

L'informe es va fer fa 39 minuts, a les 20:00 UTC
Vent 12 kt del Oest
Temperatura 7°C
Humitat 76%
Pressió 1014 hPa
Visibilitat 10 km o més
Cel ennuvolat a una alçada de 3200 ft

METAR: LEAO 222000Z 27012KT 9999 BKN032 07/03 Q1014

Hora: 21:39 (20:39 UTC)

Pronòstic

L'informe es va fer fa 3 hores i 39 minuts, a les 17:00 UTC
Pronòstic vàlid del 22 a les 18 UTC al 23 a les 03 UTC
Vent 13 kt del Oest
Visibilitat 10 km o més
Núvols disperses a una alçada de 2500 ft
Cel ennuvolat a una alçada de 4500 ft
Probabilitat 30% :
Temporalment
l' 22 a les 18 UTC al 22 a les 20 UTC
Visibilitat: 4000 m
Cel ennuvolat a una alçada de 1200 ft
plugim, pluja

TAF: LEAO 221700Z 2218/2303 28013KT 9999 SCT025 BKN045 PROB30 TEMPO 2218/2220 4000 DZRA BKN012

Observacions i pronòstics meteorològics de més de 4000 aeroports (METAR i TAF).

Les estacions disponibles són els punts grocs i vermells al mapa.

Posi el ratolí al punt desitjat per veure el nom de l'estació.

Feu clic per veure les observacions i els pronòstics meteorològics.

Per canviar el mapa: feu clic els botons verds amb una creu de color negre per apropar; al botó verd amb un guió per allunyar la imatge; o en les fletxes verdes per a mapes adjacents.


METAR-TAF: